sensor_id;sensor_type;location;lat;lon;timestamp;pressure;altitude;pressure_sealevel;temperature;humidity
39243;BME280;29823;47.404;8.566;2023-04-28T00:00:29;96291.13;;;12.33;100.00
39243;BME280;29823;47.404;8.566;2023-04-28T00:02:57;96293.56;;;12.35;100.00
39243;BME280;29823;47.404;8.566;2023-04-28T00:05:26;96290.13;;;12.39;100.00
39243;BME280;29823;47.404;8.566;2023-04-28T00:07:54;96283.72;;;12.40;100.00
39243;BME280;29823;47.404;8.566;2023-04-28T00:10:22;96292.88;;;12.44;100.00
39243;BME280;29823;47.404;8.566;2023-04-28T00:12:50;96291.59;;;12.47;100.00
39243;BME280;29823;47.404;8.566;2023-04-28T00:15:18;96288.06;;;12.46;100.00
39243;BME280;29823;47.404;8.566;2023-04-28T00:17:47;96296.19;;;12.51;100.00
39243;BME280;29823;47.404;8.566;2023-04-28T00:20:15;96278.00;;;12.53;100.00
39243;BME280;29823;47.404;8.566;2023-04-28T00:22:43;96280.63;;;12.48;100.00
39243;BME280;29823;47.404;8.566;2023-04-28T00:25:12;96281.91;;;12.46;100.00
39243;BME280;29823;47.404;8.566;2023-04-28T00:27:41;96278.66;;;12.44;100.00
39243;BME280;29823;47.404;8.566;2023-04-28T00:30:09;96282.56;;;12.36;100.00
39243;BME280;29823;47.404;8.566;2023-04-28T00:32:37;96290.88;;;12.35;100.00
39243;BME280;29823;47.404;8.566;2023-04-28T00:35:07;96284.69;;;12.34;100.00
39243;BME280;29823;47.404;8.566;2023-04-28T00:37:35;96278.03;;;12.37;100.00
39243;BME280;29823;47.404;8.566;2023-04-28T00:40:05;96275.72;;;12.45;100.00
39243;BME280;29823;47.404;8.566;2023-04-28T00:42:33;96274.25;;;12.54;100.00
39243;BME280;29823;47.404;8.566;2023-04-28T00:45:00;96266.91;;;12.45;100.00
39243;BME280;29823;47.404;8.566;2023-04-28T00:47:31;96275.56;;;12.52;100.00
39243;BME280;29823;47.404;8.566;2023-04-28T00:50:00;96272.00;;;12.46;100.00
39243;BME280;29823;47.404;8.566;2023-04-28T00:52:30;96283.00;;;12.45;100.00
39243;BME280;29823;47.404;8.566;2023-04-28T00:54:58;96274.59;;;12.41;100.00
39243;BME280;29823;47.404;8.566;2023-04-28T00:57:26;96272.38;;;12.33;100.00
39243;BME280;29823;47.404;8.566;2023-04-28T00:59:53;96266.31;;;12.21;100.00
39243;BME280;29823;47.404;8.566;2023-04-28T01:02:21;96277.59;;;12.23;100.00
39243;BME280;29823;47.404;8.566;2023-04-28T01:04:50;96274.00;;;12.18;100.00
39243;BME280;29823;47.404;8.566;2023-04-28T01:07:18;96257.13;;;12.17;100.00
39243;BME280;29823;47.404;8.566;2023-04-28T01:09:48;96269.31;;;12.25;100.00
39243;BME280;29823;47.404;8.566;2023-04-28T01:12:16;96233.34;;;12.04;100.00
39243;BME280;29823;47.404;8.566;2023-04-28T01:14:44;96270.22;;;12.35;100.00
39243;BME280;29823;47.404;8.566;2023-04-28T01:17:13;96272.91;;;12.35;100.00
39243;BME280;29823;47.404;8.566;2023-04-28T01:19:41;96264.88;;;12.35;100.00
39243;BME280;29823;47.404;8.566;2023-04-28T01:22:09;96277.16;;;12.31;100.00
39243;BME280;29823;47.404;8.566;2023-04-28T01:24:40;96286.16;;;12.42;100.00
39243;BME280;29823;47.404;8.566;2023-04-28T01:27:08;96279.28;;;12.29;100.00
39243;BME280;29823;47.404;8.566;2023-04-28T01:29:36;96291.53;;;12.25;100.00
39243;BME280;29823;47.404;8.566;2023-04-28T01:32:04;96294.59;;;12.34;100.00
39243;BME280;29823;47.404;8.566;2023-04-28T01:34:32;96290.69;;;12.41;100.00
39243;BME280;29823;47.404;8.566;2023-04-28T01:37:00;96284.84;;;12.44;100.00
39243;BME280;29823;47.404;8.566;2023-04-28T01:39:28;96289.38;;;12.44;100.00
39243;BME280;29823;47.404;8.566;2023-04-28T01:41:57;96293.19;;;12.48;100.00
39243;BME280;29823;47.404;8.566;2023-04-28T01:44:25;96290.00;;;12.29;100.00
39243;BME280;29823;47.404;8.566;2023-04-28T01:46:53;96283.94;;;12.17;100.00
39243;BME280;29823;47.404;8.566;2023-04-28T01:49:21;96283.56;;;12.30;100.00
39243;BME280;29823;47.404;8.566;2023-04-28T01:51:49;96268.63;;;12.34;100.00
39243;BME280;29823;47.404;8.566;2023-04-28T01:54:17;96278.34;;;12.40;100.00
39243;BME280;29823;47.404;8.566;2023-04-28T01:56:45;96258.34;;;12.26;100.00
39243;BME280;29823;47.404;8.566;2023-04-28T01:59:14;96280.44;;;12.17;100.00
39243;BME280;29823;47.404;8.566;2023-04-28T02:01:42;96280.53;;;12.05;100.00
39243;BME280;29823;47.404;8.566;2023-04-28T02:04:09;96291.81;;;12.07;100.00
39243;BME280;29823;47.404;8.566;2023-04-28T02:06:38;96294.34;;;11.97;100.00
39243;BME280;29823;47.404;8.566;2023-04-28T02:09:05;96301.31;;;12.15;100.00
39243;BME280;29823;47.404;8.566;2023-04-28T02:11:33;96294.59;;;11.96;100.00
39243;BME280;29823;47.404;8.566;2023-04-28T02:14:01;96296.31;;;12.02;100.00
39243;BME280;29823;47.404;8.566;2023-04-28T02:16:31;96293.03;;;12.16;100.00
39243;BME280;29823;47.404;8.566;2023-04-28T02:18:59;96286.47;;;12.07;100.00
39243;BME280;29823;47.404;8.566;2023-04-28T02:21:27;96276.88;;;12.11;100.00
39243;BME280;29823;47.404;8.566;2023-04-28T02:23:55;96275.44;;;12.25;100.00
39243;BME280;29823;47.404;8.566;2023-04-28T02:26:23;96256.28;;;11.95;100.00
39243;BME280;29823;47.404;8.566;2023-04-28T02:28:51;96282.63;;;12.03;100.00
39243;BME280;29823;47.404;8.566;2023-04-28T02:31:19;96280.72;;;11.99;100.00
39243;BME280;29823;47.404;8.566;2023-04-28T02:33:48;96300.28;;;11.99;100.00
39243;BME280;29823;47.404;8.566;2023-04-28T02:36:16;96307.34;;;12.05;100.00
39243;BME280;29823;47.404;8.566;2023-04-28T02:38:43;96315.31;;;12.00;100.00
39243;BME280;29823;47.404;8.566;2023-04-28T02:41:12;96300.59;;;11.86;100.00
39243;BME280;29823;47.404;8.566;2023-04-28T02:43:40;96314.16;;;11.96;100.00
39243;BME280;29823;47.404;8.566;2023-04-28T02:46:08;96311.22;;;12.14;100.00
39243;BME280;29823;47.404;8.566;2023-04-28T02:48:36;96316.09;;;12.01;100.00
39243;BME280;29823;47.404;8.566;2023-04-28T02:51:06;96312.47;;;11.90;100.00
39243;BME280;29823;47.404;8.566;2023-04-28T02:53:33;96326.66;;;11.91;100.00
39243;BME280;29823;47.404;8.566;2023-04-28T02:56:01;96318.69;;;11.96;100.00
39243;BME280;29823;47.404;8.566;2023-04-28T02:58:30;96311.25;;;11.81;100.00
39243;BME280;29823;47.404;8.566;2023-04-28T03:00:57;96322.13;;;11.91;100.00
39243;BME280;29823;47.404;8.566;2023-04-28T03:03:25;96330.25;;;11.96;100.00
39243;BME280;29823;47.404;8.566;2023-04-28T03:05:53;96294.69;;;11.84;100.00
39243;BME280;29823;47.404;8.566;2023-04-28T03:08:23;96315.47;;;12.10;100.00
39243;BME280;29823;47.404;8.566;2023-04-28T03:10:51;96317.56;;;12.08;100.00
39243;BME280;29823;47.404;8.566;2023-04-28T03:13:19;96299.38;;;12.10;100.00
39243;BME280;29823;47.404;8.566;2023-04-28T03:15:47;96311.22;;;12.14;100.00
39243;BME280;29823;47.404;8.566;2023-04-28T03:18:15;96298.94;;;12.18;100.00
39243;BME280;29823;47.404;8.566;2023-04-28T03:20:42;96323.75;;;12.09;100.00
39243;BME280;29823;47.404;8.566;2023-04-28T03:23:10;96336.50;;;11.85;100.00
39243;BME280;29823;47.404;8.566;2023-04-28T03:25:39;96327.81;;;11.78;100.00
39243;BME280;29823;47.404;8.566;2023-04-28T03:28:07;96327.78;;;11.95;100.00
39243;BME280;29823;47.404;8.566;2023-04-28T03:30:36;96476.22;;;11.94;100.00
39243;BME280;29823;47.404;8.566;2023-04-28T03:33:03;96365.97;;;11.85;100.00
39243;BME280;29823;47.404;8.566;2023-04-28T03:35:32;96345.69;;;11.89;100.00
39243;BME280;29823;47.404;8.566;2023-04-28T03:38:00;96360.63;;;12.02;100.00
39243;BME280;29823;47.404;8.566;2023-04-28T03:40:27;96332.69;;;11.98;100.00
39243;BME280;29823;47.404;8.566;2023-04-28T03:42:57;96346.94;;;12.03;100.00
39243;BME280;29823;47.404;8.566;2023-04-28T03:45:24;96341.03;;;12.01;100.00
39243;BME280;29823;47.404;8.566;2023-04-28T03:47:52;96338.03;;;11.98;100.00
39243;BME280;29823;47.404;8.566;2023-04-28T03:50:20;96342.09;;;12.00;100.00
39243;BME280;29823;47.404;8.566;2023-04-28T03:52:51;96261.41;;;11.80;100.00
39243;BME280;29823;47.404;8.566;2023-04-28T03:55:19;96339.09;;;11.80;100.00
39243;BME280;29823;47.404;8.566;2023-04-28T03:57:47;96328.13;;;11.82;100.00
39243;BME280;29823;47.404;8.566;2023-04-28T04:00:16;96344.53;;;11.85;100.00
39243;BME280;29823;47.404;8.566;2023-04-28T04:02:44;96347.44;;;11.84;100.00
39243;BME280;29823;47.404;8.566;2023-04-28T04:05:13;96357.75;;;11.75;100.00
39243;BME280;29823;47.404;8.566;2023-04-28T04:07:40;96373.25;;;11.73;100.00
39243;BME280;29823;47.404;8.566;2023-04-28T04:10:09;96374.69;;;11.64;100.00
39243;BME280;29823;47.404;8.566;2023-04-28T04:12:37;96380.03;;;11.64;100.00
39243;BME280;29823;47.404;8.566;2023-04-28T04:15:06;96373.25;;;11.73;100.00
39243;BME280;29823;47.404;8.566;2023-04-28T04:17:35;96367.81;;;11.68;100.00
39243;BME280;29823;47.404;8.566;2023-04-28T04:20:04;96371.06;;;11.70;100.00
39243;BME280;29823;47.404;8.566;2023-04-28T04:22:32;96360.34;;;11.70;100.00
39243;BME280;29823;47.404;8.566;2023-04-28T04:25:00;96366.94;;;11.79;100.00
39243;BME280;29823;47.404;8.566;2023-04-28T04:27:27;96373.81;;;11.75;100.00
39243;BME280;29823;47.404;8.566;2023-04-28T04:29:55;96358.66;;;11.81;100.00
39243;BME280;29823;47.404;8.566;2023-04-28T04:32:23;96366.53;;;11.71;100.00
39243;BME280;29823;47.404;8.566;2023-04-28T04:34:52;96367.22;;;11.66;100.00
39243;BME280;29823;47.404;8.566;2023-04-28T04:37:21;96374.72;;;11.53;100.00
39243;BME280;29823;47.404;8.566;2023-04-28T04:39:49;96376.59;;;11.52;100.00
39243;BME280;29823;47.404;8.566;2023-04-28T04:42:17;96384.44;;;11.70;100.00
39243;BME280;29823;47.404;8.566;2023-04-28T04:44:51;96381.38;;;11.78;100.00
39243;BME280;29823;47.404;8.566;2023-04-28T04:47:19;96375.63;;;11.86;100.00
39243;BME280;29823;47.404;8.566;2023-04-28T04:49:47;96391.50;;;11.76;100.00
39243;BME280;29823;47.404;8.566;2023-04-28T04:52:16;96388.72;;;11.71;100.00
39243;BME280;29823;47.404;8.566;2023-04-28T04:54:45;96382.41;;;11.77;100.00
39243;BME280;29823;47.404;8.566;2023-04-28T04:57:13;96377.88;;;11.78;100.00
39243;BME280;29823;47.404;8.566;2023-04-28T04:59:40;96395.91;;;11.82;100.00
39243;BME280;29823;47.404;8.566;2023-04-28T05:02:08;96385.44;;;11.81;100.00
39243;BME280;29823;47.404;8.566;2023-04-28T05:04:36;96393.81;;;11.84;100.00
39243;BME280;29823;47.404;8.566;2023-04-28T05:07:05;96376.81;;;11.79;100.00
39243;BME280;29823;47.404;8.566;2023-04-28T05:09:34;96363.50;;;11.84;100.00
39243;BME280;29823;47.404;8.566;2023-04-28T05:12:02;96376.91;;;11.84;100.00
39243;BME280;29823;47.404;8.566;2023-04-28T05:14:30;96406.31;;;11.95;100.00
39243;BME280;29823;47.404;8.566;2023-04-28T05:16:58;96396.16;;;11.97;100.00
39243;BME280;29823;47.404;8.566;2023-04-28T05:19:25;96387.88;;;11.99;100.00
39243;BME280;29823;47.404;8.566;2023-04-28T05:21:53;96410.47;;;12.03;100.00
39243;BME280;29823;47.404;8.566;2023-04-28T05:24:21;96406.22;;;11.90;100.00
39243;BME280;29823;47.404;8.566;2023-04-28T05:26:52;96414.72;;;12.15;100.00
39243;BME280;29823;47.404;8.566;2023-04-28T05:29:20;96396.00;;;12.20;100.00
39243;BME280;29823;47.404;8.566;2023-04-28T05:31:48;96408.84;;;12.18;100.00
39243;BME280;29823;47.404;8.566;2023-04-28T05:34:16;96421.44;;;12.01;100.00
39243;BME280;29823;47.404;8.566;2023-04-28T05:36:44;96421.34;;;11.96;100.00
39243;BME280;29823;47.404;8.566;2023-04-28T05:39:12;96426.38;;;11.93;100.00
39243;BME280;29823;47.404;8.566;2023-04-28T05:41:40;96437.19;;;11.98;100.00
39243;BME280;29823;47.404;8.566;2023-04-28T05:44:09;96430.34;;;12.07;100.00
39243;BME280;29823;47.404;8.566;2023-04-28T05:46:37;96430.69;;;12.10;100.00
39243;BME280;29823;47.404;8.566;2023-04-28T05:49:05;96423.97;;;12.41;100.00
39243;BME280;29823;47.404;8.566;2023-04-28T05:51:33;96410.94;;;12.49;100.00
39243;BME280;29823;47.404;8.566;2023-04-28T05:54:01;96398.91;;;12.35;100.00
39243;BME280;29823;47.404;8.566;2023-04-28T05:56:29;96378.78;;;12.33;100.00
39243;BME280;29823;47.404;8.566;2023-04-28T05:58:57;96396.66;;;12.27;100.00
39243;BME280;29823;47.404;8.566;2023-04-28T06:01:30;96396.66;;;12.27;100.00
39243;BME280;29823;47.404;8.566;2023-04-28T06:03:58;96395.53;;;12.23;100.00
39243;BME280;29823;47.404;8.566;2023-04-28T06:06:27;96409.66;;;12.19;100.00
39243;BME280;29823;47.404;8.566;2023-04-28T06:08:55;96403.47;;;12.18;100.00
39243;BME280;29823;47.404;8.566;2023-04-28T06:11:23;96409.34;;;12.15;100.00
39243;BME280;29823;47.404;8.566;2023-04-28T06:13:51;96409.81;;;12.12;100.00
39243;BME280;29823;47.404;8.566;2023-04-28T06:16:18;96413.38;;;12.01;100.00
39243;BME280;29823;47.404;8.566;2023-04-28T06:18:48;96426.38;;;12.09;100.00
39243;BME280;29823;47.404;8.566;2023-04-28T06:21:16;96416.31;;;12.00;100.00
39243;BME280;29823;47.404;8.566;2023-04-28T06:23:44;96425.25;;;12.05;100.00
39243;BME280;29823;47.404;8.566;2023-04-28T06:26:12;96411.44;;;12.13;100.00
39243;BME280;29823;47.404;8.566;2023-04-28T06:28:43;96407.31;;;12.22;100.00
39243;BME280;29823;47.404;8.566;2023-04-28T06:31:11;96398.63;;;12.15;100.00
39243;BME280;29823;47.404;8.566;2023-04-28T06:33:39;96384.97;;;12.17;100.00
39243;BME280;29823;47.404;8.566;2023-04-28T06:36:09;96387.88;;;12.32;100.00
39243;BME280;29823;47.404;8.566;2023-04-28T06:38:39;96388.53;;;12.22;100.00
39243;BME280;29823;47.404;8.566;2023-04-28T06:41:08;96388.38;;;12.29;100.00
39243;BME280;29823;47.404;8.566;2023-04-28T06:43:36;96375.78;;;12.29;100.00
39243;BME280;29823;47.404;8.566;2023-04-28T06:46:04;96382.44;;;12.27;100.00
39243;BME280;29823;47.404;8.566;2023-04-28T06:48:32;96370.28;;;12.03;100.00
39243;BME280;29823;47.404;8.566;2023-04-28T06:51:00;96384.97;;;12.00;100.00
39243;BME280;29823;47.404;8.566;2023-04-28T06:53:29;96385.38;;;12.09;100.00
39243;BME280;29823;47.404;8.566;2023-04-28T06:55:56;96385.28;;;12.20;100.00
39243;BME280;29823;47.404;8.566;2023-04-28T06:58:24;96384.72;;;12.18;100.00
39243;BME280;29823;47.404;8.566;2023-04-28T07:00:52;96361.03;;;12.10;100.00
39243;BME280;29823;47.404;8.566;2023-04-28T07:03:20;96339.00;;;12.08;100.00
39243;BME280;29823;47.404;8.566;2023-04-28T07:05:48;96367.09;;;12.06;100.00
39243;BME280;29823;47.404;8.566;2023-04-28T07:08:16;96359.63;;;12.24;100.00
39243;BME280;29823;47.404;8.566;2023-04-28T07:10:45;96363.00;;;12.36;100.00
39243;BME280;29823;47.404;8.566;2023-04-28T07:13:13;96351.28;;;12.59;100.00
39243;BME280;29823;47.404;8.566;2023-04-28T07:15:41;96337.13;;;12.63;100.00
39243;BME280;29823;47.404;8.566;2023-04-28T07:18:09;96269.69;;;11.95;100.00
39243;BME280;29823;47.404;8.566;2023-04-28T07:20:37;96365.44;;;12.54;100.00
39243;BME280;29823;47.404;8.566;2023-04-28T07:23:05;96348.19;;;12.67;100.00
39243;BME280;29823;47.404;8.566;2023-04-28T07:25:33;96330.97;;;12.63;100.00
39243;BME280;29823;47.404;8.566;2023-04-28T07:28:04;96346.06;;;12.69;100.00
39243;BME280;29823;47.404;8.566;2023-04-28T07:30:32;96352.09;;;12.81;100.00
39243;BME280;29823;47.404;8.566;2023-04-28T07:33:00;96348.28;;;12.77;100.00
39243;BME280;29823;47.404;8.566;2023-04-28T07:35:28;96349.22;;;12.66;100.00
39243;BME280;29823;47.404;8.566;2023-04-28T07:37:56;96351.50;;;12.57;100.00
39243;BME280;29823;47.404;8.566;2023-04-28T07:40:24;96371.44;;;12.61;100.00
39243;BME280;29823;47.404;8.566;2023-04-28T07:42:52;96364.72;;;12.42;100.00
39243;BME280;29823;47.404;8.566;2023-04-28T07:45:21;96365.22;;;12.39;100.00
39243;BME280;29823;47.404;8.566;2023-04-28T07:47:49;96366.28;;;12.38;100.00
39243;BME280;29823;47.404;8.566;2023-04-28T07:50:17;96378.94;;;12.43;100.00
39243;BME280;29823;47.404;8.566;2023-04-28T07:52:45;96374.41;;;12.43;100.00
39243;BME280;29823;47.404;8.566;2023-04-28T07:55:12;96382.38;;;12.38;100.00
39243;BME280;29823;47.404;8.566;2023-04-28T07:57:40;96377.47;;;12.35;100.00
39243;BME280;29823;47.404;8.566;2023-04-28T08:00:09;96387.66;;;12.33;100.00
39243;BME280;29823;47.404;8.566;2023-04-28T08:02:39;96393.16;;;12.27;100.00
39243;BME280;29823;47.404;8.566;2023-04-28T08:05:07;96393.16;;;12.27;100.00
39243;BME280;29823;47.404;8.566;2023-04-28T08:07:36;96359.78;;;12.01;100.00
39243;BME280;29823;47.404;8.566;2023-04-28T08:10:04;96363.78;;;12.15;100.00
39243;BME280;29823;47.404;8.566;2023-04-28T08:12:32;96383.34;;;12.16;100.00
39243;BME280;29823;47.404;8.566;2023-04-28T08:15:00;96381.72;;;12.15;100.00
39243;BME280;29823;47.404;8.566;2023-04-28T08:17:29;96394.63;;;12.01;100.00
39243;BME280;29823;47.404;8.566;2023-04-28T08:19:58;96390.97;;;12.07;100.00
39243;BME280;29823;47.404;8.566;2023-04-28T08:22:26;96417.94;;;12.17;100.00
39243;BME280;29823;47.404;8.566;2023-04-28T08:24:54;96415.91;;;12.24;100.00
39243;BME280;29823;47.404;8.566;2023-04-28T08:27:22;96405.59;;;12.33;100.00
39243;BME280;29823;47.404;8.566;2023-04-28T08:29:51;96408.19;;;12.44;100.00
39243;BME280;29823;47.404;8.566;2023-04-28T08:32:19;96394.69;;;12.39;100.00
39243;BME280;29823;47.404;8.566;2023-04-28T08:34:47;96406.06;;;12.46;100.00
39243;BME280;29823;47.404;8.566;2023-04-28T08:37:16;96411.03;;;12.54;100.00
39243;BME280;29823;47.404;8.566;2023-04-28T08:39:44;96411.81;;;12.71;100.00
39243;BME280;29823;47.404;8.566;2023-04-28T08:42:13;96409.44;;;12.75;100.00
39243;BME280;29823;47.404;8.566;2023-04-28T08:44:41;96422.00;;;12.69;100.00
39243;BME280;29823;47.404;8.566;2023-04-28T08:47:11;96420.81;;;12.98;100.00
39243;BME280;29823;47.404;8.566;2023-04-28T08:49:40;96413.13;;;13.28;100.00
39243;BME280;29823;47.404;8.566;2023-04-28T08:52:10;96414.00;;;13.34;100.00
39243;BME280;29823;47.404;8.566;2023-04-28T08:54:40;96411.13;;;13.19;100.00
39243;BME280;29823;47.404;8.566;2023-04-28T08:57:09;96413.13;;;13.28;100.00
39243;BME280;29823;47.404;8.566;2023-04-28T08:59:38;96414.28;;;13.11;100.00
39243;BME280;29823;47.404;8.566;2023-04-28T09:02:07;96422.19;;;13.22;100.00
39243;BME280;29823;47.404;8.566;2023-04-28T09:04:35;96411.63;;;13.37;100.00
39243;BME280;29823;47.404;8.566;2023-04-28T09:07:09;96412.44;;;13.38;100.00
39243;BME280;29823;47.404;8.566;2023-04-28T09:09:39;96405.81;;;13.24;100.00
39243;BME280;29823;47.404;8.566;2023-04-28T09:12:07;96402.84;;;13.20;100.00
39243;BME280;29823;47.404;8.566;2023-04-28T09:14:36;96402.00;;;13.20;100.00
39243;BME280;29823;47.404;8.566;2023-04-28T09:17:09;96397.34;;;13.10;100.00
39243;BME280;29823;47.404;8.566;2023-04-28T09:19:38;96401.22;;;13.19;100.00
39243;BME280;29823;47.404;8.566;2023-04-28T09:22:09;96424.13;;;13.27;100.00
39243;BME280;29823;47.404;8.566;2023-04-28T09:24:53;96408.91;;;13.11;100.00
39243;BME280;29823;47.404;8.566;2023-04-28T09:27:26;96428.69;;;13.26;100.00
39243;BME280;29823;47.404;8.566;2023-04-28T09:29:54;96417.44;;;13.29;100.00
39243;BME280;29823;47.404;8.566;2023-04-28T09:32:23;96418.63;;;13.38;100.00
39243;BME280;29823;47.404;8.566;2023-04-28T09:34:54;96427.84;;;13.69;100.00
39243;BME280;29823;47.404;8.566;2023-04-28T09:37:24;96405.00;;;13.45;100.00
39243;BME280;29823;47.404;8.566;2023-04-28T09:40:04;96437.16;;;13.61;100.00
39243;BME280;29823;47.404;8.566;2023-04-28T09:42:34;96434.72;;;13.60;100.00
39243;BME280;29823;47.404;8.566;2023-04-28T09:45:03;96425.19;;;13.47;100.00
39243;BME280;29823;47.404;8.566;2023-04-28T09:47:33;96431.03;;;13.44;100.00
39243;BME280;29823;47.404;8.566;2023-04-28T09:50:03;96435.31;;;13.40;100.00
39243;BME280;29823;47.404;8.566;2023-04-28T09:52:32;96443.72;;;13.49;100.00
39243;BME280;29823;47.404;8.566;2023-04-28T09:55:03;96453.03;;;13.41;100.00
39243;BME280;29823;47.404;8.566;2023-04-28T09:57:32;96431.56;;;13.41;100.00
39243;BME280;29823;47.404;8.566;2023-04-28T10:00:02;96436.94;;;13.41;100.00
39243;BME280;29823;47.404;8.566;2023-04-28T10:02:33;96432.03;;;13.38;100.00
39243;BME280;29823;47.404;8.566;2023-04-28T10:05:05;96444.22;;;13.67;100.00
39243;BME280;29823;47.404;8.566;2023-04-28T10:07:36;96444.59;;;13.76;100.00
39243;BME280;29823;47.404;8.566;2023-04-28T10:10:07;96432.59;;;13.62;100.00
39243;BME280;29823;47.404;8.566;2023-04-28T10:12:34;96445.38;;;13.76;100.00
39243;BME280;29823;47.404;8.566;2023-04-28T10:15:05;96442.09;;;13.69;100.00
39243;BME280;29823;47.404;8.566;2023-04-28T10:17:34;96433.53;;;13.72;100.00
39243;BME280;29823;47.404;8.566;2023-04-28T10:20:04;96402.13;;;13.51;100.00
39243;BME280;29823;47.404;8.566;2023-04-28T10:22:51;96432.81;;;13.82;100.00
39243;BME280;29823;47.404;8.566;2023-04-28T10:25:28;96421.16;;;13.98;100.00
39243;BME280;29823;47.404;8.566;2023-04-28T10:27:58;96422.78;;;13.99;100.00
39243;BME280;29823;47.404;8.566;2023-04-28T10:30:26;96433.09;;;14.12;100.00
39243;BME280;29823;47.404;8.566;2023-04-28T10:33:21;96421.81;;;14.41;100.00
39243;BME280;29823;47.404;8.566;2023-04-28T10:35:50;96424.56;;;14.46;100.00
39243;BME280;29823;47.404;8.566;2023-04-28T10:38:18;96429.25;;;14.29;100.00
39243;BME280;29823;47.404;8.566;2023-04-28T10:40:49;96424.63;;;14.20;100.00
39243;BME280;29823;47.404;8.566;2023-04-28T10:43:37;96427.81;;;14.48;100.00
39243;BME280;29823;47.404;8.566;2023-04-28T10:46:06;96425.88;;;14.44;100.00
39243;BME280;29823;47.404;8.566;2023-04-28T10:49:05;96419.41;;;14.76;100.00
39243;BME280;29823;47.404;8.566;2023-04-28T10:51:34;96409.78;;;14.85;100.00
39243;BME280;29823;47.404;8.566;2023-04-28T10:57:17;96408.56;;;15.13;100.00
39243;BME280;29823;47.404;8.566;2023-04-28T10:59:48;96411.56;;;15.21;100.00
39243;BME280;29823;47.404;8.566;2023-04-28T11:02:39;96405.59;;;15.09;100.00
39243;BME280;29823;47.404;8.566;2023-04-28T11:05:16;96402.41;;;15.17;100.00
39243;BME280;29823;47.404;8.566;2023-04-28T11:11:15;96402.91;;;15.71;100.00
39243;BME280;29823;47.404;8.566;2023-04-28T11:13:46;96399.72;;;16.04;100.00
39243;BME280;29823;47.404;8.566;2023-04-28T11:16:16;96390.03;;;16.08;100.00
39243;BME280;29823;47.404;8.566;2023-04-28T11:18:49;96397.03;;;16.09;100.00
39243;BME280;29823;47.404;8.566;2023-04-28T11:21:22;96405.38;;;15.87;100.00
39243;BME280;29823;47.404;8.566;2023-04-28T11:23:50;96387.06;;;16.29;100.00
39243;BME280;29823;47.404;8.566;2023-04-28T11:26:18;96387.06;;;16.59;100.00
39243;BME280;29823;47.404;8.566;2023-04-28T11:28:48;96375.19;;;16.50;100.00
39243;BME280;29823;47.404;8.566;2023-04-28T11:31:17;96389.22;;;16.67;100.00
39243;BME280;29823;47.404;8.566;2023-04-28T11:33:50;96396.22;;;16.78;100.00
39243;BME280;29823;47.404;8.566;2023-04-28T11:36:29;96376.81;;;16.61;100.00
39243;BME280;29823;47.404;8.566;2023-04-28T11:38:59;96391.91;;;16.32;100.00
39243;BME280;29823;47.404;8.566;2023-04-28T11:41:27;96387.59;;;16.36;100.00
39243;BME280;29823;47.404;8.566;2023-04-28T11:43:56;96367.34;;;16.04;100.00
39243;BME280;29823;47.404;8.566;2023-04-28T11:46:24;96369.25;;;16.28;100.00
39243;BME280;29823;47.404;8.566;2023-04-28T11:49:00;96360.59;;;16.76;100.00
39243;BME280;29823;47.404;8.566;2023-04-28T11:51:29;96365.53;;;17.43;100.00
39243;BME280;29823;47.404;8.566;2023-04-28T11:53:59;96377.28;;;18.10;100.00
39243;BME280;29823;47.404;8.566;2023-04-28T11:56:28;96365.66;;;17.71;100.00
39243;BME280;29823;47.404;8.566;2023-04-28T11:59:03;96371.94;;;18.44;100.00
39243;BME280;29823;47.404;8.566;2023-04-28T12:01:32;96364.78;;;18.53;100.00
39243;BME280;29823;47.404;8.566;2023-04-28T12:04:03;96367.94;;;18.31;100.00
39243;BME280;29823;47.404;8.566;2023-04-28T12:06:31;96368.63;;;18.47;100.00
39243;BME280;29823;47.404;8.566;2023-04-28T12:08:59;96370.78;;;18.11;100.00
39243;BME280;29823;47.404;8.566;2023-04-28T12:11:30;96370.94;;;17.38;100.00
39243;BME280;29823;47.404;8.566;2023-04-28T12:14:06;96368.91;;;16.95;100.00
39243;BME280;29823;47.404;8.566;2023-04-28T12:16:39;96361.81;;;17.19;100.00
39243;BME280;29823;47.404;8.566;2023-04-28T12:19:10;96374.09;;;16.71;100.00
39243;BME280;29823;47.404;8.566;2023-04-28T12:21:38;96373.81;;;16.78;100.00
39243;BME280;29823;47.404;8.566;2023-04-28T12:24:14;96381.25;;;17.26;100.00
39243;BME280;29823;47.404;8.566;2023-04-28T12:26:42;96366.78;;;16.87;100.00
39243;BME280;29823;47.404;8.566;2023-04-28T12:29:36;96376.28;;;16.64;100.00
39243;BME280;29823;47.404;8.566;2023-04-28T12:32:06;96374.09;;;16.66;100.00
39243;BME280;29823;47.404;8.566;2023-04-28T12:34:36;96370.28;;;16.82;100.00
39243;BME280;29823;47.404;8.566;2023-04-28T12:37:05;96362.63;;;17.14;100.00
39243;BME280;29823;47.404;8.566;2023-04-28T12:39:34;96370.69;;;17.39;100.00
39243;BME280;29823;47.404;8.566;2023-04-28T12:42:05;96372.88;;;17.27;100.00
39243;BME280;29823;47.404;8.566;2023-04-28T12:44:36;96378.00;;;17.19;100.00
39243;BME280;29823;47.404;8.566;2023-04-28T12:47:05;96361.56;;;17.10;100.00
39243;BME280;29823;47.404;8.566;2023-04-28T12:49:34;96362.50;;;17.54;100.00
39243;BME280;29823;47.404;8.566;2023-04-28T12:52:04;96353.81;;;18.96;100.00
39243;BME280;29823;47.404;8.566;2023-04-28T12:54:32;96353.97;;;19.52;100.00
39243;BME280;29823;47.404;8.566;2023-04-28T12:57:00;96347.09;;;20.33;100.00
39243;BME280;29823;47.404;8.566;2023-04-28T12:59:29;96348.81;;;20.11;100.00
39243;BME280;29823;47.404;8.566;2023-04-28T13:01:59;96350.47;;;19.88;100.00
39243;BME280;29823;47.404;8.566;2023-04-28T13:04:28;96348.09;;;21.15;100.00
39243;BME280;29823;47.404;8.566;2023-04-28T13:06:57;96349.69;;;21.56;100.00